Portada
METAR-TAF:

METAR-TAF

Aeropuertos :

Chattanooga, Tennessee, Estados Unidos

latitud: 35-02-00N, longitud: 085-12-00W, altitud: 207 m

Observación

El informe se hizo hace 1 hora y 2 minutos, a las 21:53 UTC
Viento calma
Temperatura 21°C
Humedad 28%
Presión 1017 hPa
Visibilidad: 16.1 km
Escasas nubes a una altura de 25000 ft

METAR: KCHA 022153Z 00000KT 10SM FEW250 21/02 A3003 RMK AO2 SLP167 T02060022

Hora: 18:55 (22:55 UTC)

Pronóstico

El informe se hizo hace 5 horas y 25 minutos, a las 17:30 UTC
Pronóstico válido del 02 a las 18 UTC al 03 a las 18 UTC
Viento 9 kt del norte
Visibilidad: 10 km
Escasas nubes a una altura de 5000 ft
A partir de las 03 a las 0000 UTC
Viento 5 kt del norte
Visibilidad: 10 km
Cielo despejado

TAF: KCHA 021730Z 0218/0318 01009KT P6SM FEW050 FM030000 01005KT P6SM SKC

Observaciones y pronósticos meteorológicos de más de 4000 aeropuertos (mensajes METAR y TAF).

Los puntos amarillos y rojos representan las estaciones disponibles.

Ponga el ratón en el punto deseado para ver el nombre de la estación.

Haga clic para ver las observaciones y los pronósticos meteorológicos.

Para cambiar el mapa : haga clic en los botones verdes con una cruz de color negro para hacer un zoom, en el botón verde con un guión para alejar o en las flechas verdes para mapas adyacentes.


METAR-TAF: